Time;durP1;ratioP1;P1;durP2;ratioP2;P2;SDS_P1;SDS_P2;PMS_P1;PMS_P2;Temp;Humidity;BMP_temperature;BMP_pressure;BME280_temperature;BME280_humidity;BME280_pressure;Samples;Min_cycle;Max_cycle;Signal;HPM_P1;HPM_P2
2022/05/27 00:00:18;;;;;;;;;;;;;;;;;;1045639;28;1641;-55
2022/05/27 00:01:06;;;;;;;;;;;;;;;;;;1043097;28;4298;-58
2022/05/27 00:01:36;;;;;;;;;;;;;;;;;;1042682;28;1145;-56
2022/05/27 00:02:07;;;;;;;;;;;;;;;;;;1040641;28;4004;-56
2022/05/27 00:02:37;;;;;;;;;;;;;;;;;;1042025;28;1804;-55
2022/05/27 00:03:08;;;;;;;;;;;;;;;;;;1040395;28;3996;-54
2022/05/27 00:03:38;;;;;;;;;;;;;;;;;;1041146;28;2242;-56
2022/05/27 00:04:09;;;;;;;;;;;;;;;;;;1041383;28;3883;-56
2022/05/27 00:04:39;;;;;;;;;;;;;;;;;;1040586;28;3374;-56
2022/05/27 00:05:09;;;;;;;;;;;;;;;;;;1040385;28;3994;-56
2022/05/27 00:05:40;;;;;;;;;;;;;;;;;;1040128;28;3435;-56
2022/05/27 00:06:17;;;;;;;;;;;;;;;;;;1040136;28;3956;-56
2022/05/27 00:06:47;;;;;;;;;;;;;;;;;;1040387;28;3860;-56
2022/05/27 00:07:18;;;;;;;;;;;;;;;;;;1045115;28;3871;-57
2022/05/27 00:07:48;;;;;;;;;;;;;;;;;;1040767;28;3836;-55
2022/05/27 00:08:18;;;;;;;;;;;;;;;;;;1041938;28;2213;-56
2022/05/27 00:08:49;;;;;;;;;;;;;;;;;;1040002;28;3953;-56
2022/05/27 00:09:19;;;;;;;;;;;;;;;;;;1035316;28;4236;-55
2022/05/27 00:09:49;;;;;;;;;;;;;;;;;;1037180;28;4066;-56
2022/05/27 00:10:19;;;;;;;;;;;;;;;;;;1037864;28;1888;-54
2022/05/27 00:10:49;;;;;;;;;;;;;;;;;;1040440;28;3935;-56
2022/05/27 00:11:22;;;;;;;;;;;;;;;;;;1041291;28;2902;-57
2022/05/27 00:11:52;;;;;;;;;;;;;;;;;;1041228;28;4491;-57
2022/05/27 00:12:23;;;;;;;;;;;;;;;;;;1041351;28;1615;-54
2022/05/27 00:12:53;;;;;;;;;;;;;;;;;;1041474;28;4086;-54
2022/05/27 00:13:24;;;;;;;;;;;;;;;;;;1041308;28;2501;-53
2022/05/27 00:13:54;;;;;;;;;;;;;;;;;;1039570;28;4077;-51
2022/05/27 00:14:24;;;;;;;;;;;;;;;;;;1041828;28;2150;-55
2022/05/27 00:14:54;;;;;;;;;;;;;;;;;;1039020;28;3858;-54
2022/05/27 00:15:25;;;;;;;;;;;;;;;;;;1040919;28;3026;-54
2022/05/27 00:15:55;;;;;;;;;;;;;;;;;;1039296;28;3814;-56
2022/05/27 00:16:27;;;;;;;;;;;;;;;;;;1040658;28;3892;-59
2022/05/27 00:16:57;;;;;;;;;;;;;;;;;;1041370;28;4258;-58
2022/05/27 00:17:27;;;;;;;;;;;;;;;;;;1040786;28;3901;-56
2022/05/27 00:17:58;;;;;;;;;;;;;;;;;;1041331;28;3940;-56
2022/05/27 00:18:28;;;;;;;;;;;;;;;;;;1040899;28;2200;-55
2022/05/27 00:18:58;;;;;;;;;;;;;;;;;;1039448;28;4868;-57
2022/05/27 00:19:28;;;;;;;;;;;;;;;;;;1039548;28;4318;-57
2022/05/27 00:19:59;;;;;;;;;;;;;;;;;;1039630;28;3942;-56
2022/05/27 00:20:29;;;;;;;;;;;;;;;;;;1040928;28;3728;-55
2022/05/27 00:20:59;;;;;;;;;;;;;;;;;;1040213;28;3913;-54
2022/05/27 00:21:30;;;;;;;;;;;;;;;;;;1041375;28;3787;-56
2022/05/27 00:22:00;;;;;;;;;;;;;;;;;;1040786;28;4098;-57
2022/05/27 00:22:30;;;;;;;;;;;;;;;;;;1042199;28;1570;-56
2022/05/27 00:23:00;;;;;;;;;;;;;;;;;;1040926;28;4102;-51
2022/05/27 00:23:31;;;;;;;;;;;;;;;;;;1041564;28;2800;-56
2022/05/27 00:24:02;;;;;;;;;;;;;;;;;;1040555;28;3891;-54
2022/05/27 00:24:32;;;;;;;;;;;;;;;;;;1040133;28;3736;-56
2022/05/27 00:25:02;;;;;;;;;;;;;;;;;;1039587;28;4466;-53
2022/05/27 00:25:33;;;;;;;;;;;;;;;;;;1041039;28;3683;-53
2022/05/27 00:26:04;;;;;;;;;;;;;;;;;;1040871;28;4071;-54
2022/05/27 00:26:34;;;;;;;;;;;;;;;;;;1040516;28;3934;-52
2022/05/27 00:27:06;;;;;;;;;;;;;;;;;;1040607;28;3906;-54
2022/05/27 00:27:36;;;;;;;;;;;;;;;;;;1039692;28;3538;-52
2022/05/27 00:28:07;;;;;;;;;;;;;;;;;;1038897;28;4149;-57
2022/05/27 00:28:38;;;;;;;;;;;;;;;;;;1042045;28;3061;-57
2022/05/27 00:29:08;;;;;;;;;;;;;;;;;;1039825;28;4100;-55
2022/05/27 00:29:38;;;;;;;;;;;;;;;;;;1040581;28;3592;-54
2022/05/27 00:30:09;;;;;;;;;;;;;;;;;;1041556;28;5518;-53
2022/05/27 00:30:40;;;;;;;;;;;;;;;;;;1040741;28;2880;-55
2022/05/27 00:31:10;;;;;;;;;;;;;;;;;;1039627;28;3876;-53
2022/05/27 00:31:40;;;;;;;;;;;;;;;;;;1040912;28;3944;-55
2022/05/27 00:32:10;;;;;;;;;;;;;;;;;;1040411;28;4058;-56
2022/05/27 00:32:41;;;;;;;;;;;;;;;;;;1041344;28;2284;-53
2022/05/27 00:33:12;;;;;;;;;;;;;;;;;;1039952;28;4093;-57
2022/05/27 00:33:42;;;;;;;;;;;;;;;;;;1040301;28;3698;-55
2022/05/27 00:34:13;;;;;;;;;;;;;;;;;;1041269;28;4078;-56
2022/05/27 00:34:43;;;;;;;;;;;;;;;;;;1039651;28;3789;-57
2022/05/27 00:35:14;;;;;;;;;;;;;;;;;;1040586;28;4020;-55
2022/05/27 00:35:44;;;;;;;;;;;;;;;;;;1041148;28;3775;-56
2022/05/27 00:36:15;;;;;;;;;;;;;;;;;;1040272;28;3920;-54
2022/05/27 00:36:45;;;;;;;;;;;;;;;;;;1040774;28;4111;-55
2022/05/27 00:37:16;;;;;;;;;;;;;;;;;;1040864;28;3276;-52
2022/05/27 00:37:46;;;;;;;;;;;;;;;;;;1041408;28;3801;-53
2022/05/27 00:38:17;;;;;;;;;;;;;;;;;;1040620;28;3705;-56
2022/05/27 00:38:47;;;;;;;;;;;;;;;;;;1041345;28;4089;-57
2022/05/27 00:39:17;;;;;;;;;;;;;;;;;;1041073;28;3391;-57
2022/05/27 00:39:47;;;;;;;;;;;;;;;;;;1040001;28;3939;-52
2022/05/27 00:40:19;;;;;;;;;;;;;;;;;;1037249;28;3436;-54
2022/05/27 00:40:51;;;;;;;;;;;;;;;;;;1036908;28;3918;-51
2022/05/27 00:41:21;;;;;;;;;;;;;;;;;;1037875;28;3360;-57
2022/05/27 00:41:52;;;;;;;;;;;;;;;;;;1036634;28;4107;-56
2022/05/27 00:42:22;;;;;;;;;;;;;;;;;;1042019;28;3717;-55
2022/05/27 00:42:52;;;;;;;;;;;;;;;;;;1041921;28;4130;-54
2022/05/27 00:43:23;;;;;;;;;;;;;;;;;;1042565;28;2376;-57
2022/05/27 00:43:53;;;;;;;;;;;;;;;;;;1041507;28;3805;-57
2022/05/27 00:44:23;;;;;;;;;;;;;;;;;;1043029;28;3454;-54
2022/05/27 00:44:54;;;;;;;;;;;;;;;;;;1038424;28;5456;-59
2022/05/27 00:45:25;;;;;;;;;;;;;;;;;;1042046;28;3679;-55
2022/05/27 00:45:57;;;;;;;;;;;;;;;;;;1041517;28;4121;-55
2022/05/27 00:46:29;;;;;;;;;;;;;;;;;;1042420;28;1839;-56
2022/05/27 00:47:12;;;;;;;;;;;;;;;;;;1041478;28;4216;-57
2022/05/27 00:47:43;;;;;;;;;;;;;;;;;;1042377;28;1719;-56
2022/05/27 00:48:15;;;;;;;;;;;;;;;;;;1040892;28;3876;-57
2022/05/27 00:48:47;;;;;;;;;;;;;;;;;;1042183;28;4051;-56
2022/05/27 00:49:23;;;;;;;;;;;;;;;;;;1042327;28;3469;-57
2022/05/27 00:49:58;;;;;;;;;;;;;;;;;;1040107;28;3908;-57
2022/05/27 00:50:30;;;;;;;;;;;;;;;;;;1042434;28;3333;-56
2022/05/27 00:51:01;;;;;;;;;;;;;;;;;;1043133;28;3869;-58
2022/05/27 00:51:33;;;;;;;;;;;;;;;;;;1040998;28;3758;-53
2022/05/27 00:52:08;;;;;;;;;;;;;;;;;;1040362;28;3896;-56
2022/05/27 00:52:39;;;;;;;;;;;;;;;;;;1042198;28;3157;-56
2022/05/27 00:53:10;;;;;;;;;;;;;;;;;;1041161;28;3849;-54
2022/05/27 00:53:43;;;;;;;;;;;;;;;;;;1041400;28;3516;-56
2022/05/27 00:54:16;;;;;;;;;;;;;;;;;;1042015;28;3921;-57
2022/05/27 00:54:46;;;;;;;;;;;;;;;;;;1040169;28;4205;-56
2022/05/27 00:55:18;;;;;;;;;;;;;;;;;;1039822;28;3807;-55
2022/05/27 00:56:02;;;;;;;;;;;;;;;;;;1041654;28;4126;-57
2022/05/27 00:56:41;;;;;;;;;;;;;;;;;;1046792;28;1697;-57
2022/05/27 00:57:14;;;;;;;;;;;;;;;;;;1046353;28;3934;-54
2022/05/27 00:57:46;;;;;;;;;;;;;;;;;;1046260;28;2817;-54
2022/05/27 00:58:23;;;;;;;;;;;;;;;;;;1046020;28;4333;-56
2022/05/27 00:58:56;;;;;;;;;;;;;;;;;;1045946;28;3967;-56
2022/05/27 00:59:41;;;;;;;;;;;;;;;;;;1047164;28;1597;-55
2022/05/27 01:00:14;;;;;;;;;;;;;;;;;;1046247;28;4026;-56
2022/05/27 01:00:44;;;;;;;;;;;;;;;;;;1046811;28;1457;-56
2022/05/27 01:01:15;;;;;;;;;;;;;;;;;;1045761;28;3845;-57
2022/05/27 01:01:45;;;;;;;;;;;;;;;;;;1039838;28;3922;-56
2022/05/27 01:02:16;;;;;;;;;;;;;;;;;;1041622;28;4024;-56
2022/05/27 01:02:47;;;;;;;;;;;;;;;;;;1041975;28;4244;-57
2022/05/27 01:03:18;;;;;;;;;;;;;;;;;;1041656;28;1570;-55
2022/05/27 01:03:48;;;;;;;;;;;;;;;;;;1041991;28;3909;-54
2022/05/27 01:04:19;;;;;;;;;;;;;;;;;;1041972;28;1445;-53
2022/05/27 01:04:50;;;;;;;;;;;;;;;;;;1041824;28;4090;-55
2022/05/27 01:05:21;;;;;;;;;;;;;;;;;;1042087;28;2025;-54
2022/05/27 01:05:52;;;;;;;;;;;;;;;;;;1044683;28;3921;-52
2022/05/27 01:06:28;;;;;;;;;;;;;;;;;;1045668;28;1601;-57
2022/05/27 01:06:58;;;;;;;;;;;;;;;;;;1044591;28;4069;-56
2022/05/27 01:07:29;;;;;;;;;;;;;;;;;;1040516;28;3785;-54
2022/05/27 01:08:02;;;;;;;;;;;;;;;;;;1041046;28;4079;-56
2022/05/27 01:08:32;;;;;;;;;;;;;;;;;;1040924;28;2251;-54
2022/05/27 01:09:03;;;;;;;;;;;;;;;;;;1040686;28;4098;-56
2022/05/27 01:09:35;;;;;;;;;;;;;;;;;;1045149;28;3972;-54
2022/05/27 01:10:07;;;;;;;;;;;;;;;;;;1045975;28;3935;-56
2022/05/27 01:10:43;;;;;;;;;;;;;;;;;;1047122;28;3348;-53
2022/05/27 01:11:29;;;;;;;;;;;;;;;;;;1045755;28;4018;-57
2022/05/27 01:12:07;;;;;;;;;;;;;;;;;;1046451;28;4050;-54
2022/05/27 01:12:56;;;;;;;;;;;;;;;;;;1045636;28;2469;-57
2022/05/27 01:13:47;;;;;;;;;;;;;;;;;;1046549;28;3790;-57
2022/05/27 01:14:40;;;;;;;;;;;;;;;;;;1045232;28;3996;-56
2022/05/27 01:15:28;;;;;;;;;;;;;;;;;;1046085;28;3997;-53
2022/05/27 01:16:18;;;;;;;;;;;;;;;;;;1046267;28;3892;-53
2022/05/27 01:16:56;;;;;;;;;;;;;;;;;;1045297;28;3838;-55
2022/05/27 01:17:45;;;;;;;;;;;;;;;;;;1046736;28;1738;-56
2022/05/27 01:20:18;;;;;;;;;;;;;;;;;;1045285;28;3789;-56
2022/05/27 01:20:51;;;;;;;;;;;;;;;;;;1028616;28;3917;-57
2022/05/27 01:21:26;;;;;;;;;;;;;;;;;;1046377;28;3950;-55
2022/05/27 01:22:15;;;;;;;;;;;;;;;;;;1044085;28;3929;-57
2022/05/27 01:23:04;;;;;;;;;;;;;;;;;;1045952;28;3829;-55
2022/05/27 01:23:49;;;;;;;;;;;;;;;;;;1046161;28;2495;-57
2022/05/27 01:24:38;;;;;;;;;;;;;;;;;;1043963;28;3961;-55
2022/05/27 01:25:19;;;;;;;;;;;;;;;;;;1044282;28;3909;-55
2022/05/27 01:26:21;;;;;;;;;;;;;;;;;;1044623;28;4167;-57
2022/05/27 01:26:52;;;;;;;;;;;;;;;;;;1032904;28;3927;-54
2022/05/27 01:27:37;;;;;;;;;;;;;;;;;;1033863;28;1483;-57
2022/05/27 01:28:22;;;;;;;;;;;;;;;;;;1044714;28;4003;-54
2022/05/27 01:28:56;;;;;;;;;;;;;;;;;;1045999;28;3904;-52
2022/05/27 01:29:45;;;;;;;;;;;;;;;;;;1046713;28;1691;-55
2022/05/27 01:30:21;;;;;;;;;;;;;;;;;;1046336;28;4043;-56
2022/05/27 01:31:11;;;;;;;;;;;;;;;;;;1045730;28;4113;-58
2022/05/27 01:31:44;;;;;;;;;;;;;;;;;;1045013;28;2773;-56
2022/05/27 01:32:16;;;;;;;;;;;;;;;;;;1041115;28;3815;-57
2022/05/27 01:33:04;;;;;;;;;;;;;;;;;;1041617;28;3999;-54
2022/05/27 01:33:38;;;;;;;;;;;;;;;;;;1041818;28;3682;-57
2022/05/27 01:34:15;;;;;;;;;;;;;;;;;;1044816;28;4021;-55
2022/05/27 01:34:53;;;;;;;;;;;;;;;;;;1046545;28;3746;-56
2022/05/27 01:35:46;;;;;;;;;;;;;;;;;;1045049;28;3903;-53
2022/05/27 01:36:30;;;;;;;;;;;;;;;;;;1034170;28;5069;-57
2022/05/27 01:37:00;;;;;;;;;;;;;;;;;;1037664;28;4072;-53
2022/05/27 01:37:40;;;;;;;;;;;;;;;;;;1045248;28;3423;-55
2022/05/27 01:38:29;;;;;;;;;;;;;;;;;;1045688;28;3918;-55
2022/05/27 01:39:16;;;;;;;;;;;;;;;;;;1043493;28;3997;-55
2022/05/27 01:39:50;;;;;;;;;;;;;;;;;;1045087;28;3984;-53
2022/05/27 01:40:28;;;;;;;;;;;;;;;;;;1047145;28;2841;-56
2022/05/27 01:41:04;;;;;;;;;;;;;;;;;;1046465;28;4009;-56
2022/05/27 01:41:53;;;;;;;;;;;;;;;;;;1046555;28;1713;-54
2022/05/27 01:43:02;;;;;;;;;;;;;;;;;;1045964;28;3881;-56
2022/05/27 01:43:45;;;;;;;;;;;;;;;;;;1032928;28;3925;-56
2022/05/27 01:44:24;;;;;;;;;;;;;;;;;;1034006;28;3847;-54
2022/05/27 01:45:03;;;;;;;;;;;;;;;;;;1033348;28;3950;-56
2022/05/27 01:45:39;;;;;;;;;;;;;;;;;;1033107;28;2214;-54
2022/05/27 01:46:18;;;;;;;;;;;;;;;;;;1033266;28;4020;-57
2022/05/27 01:46:49;;;;;;;;;;;;;;;;;;1032729;28;4098;-55
2022/05/27 01:47:27;;;;;;;;;;;;;;;;;;1033680;28;3426;-57
2022/05/27 01:48:01;;;;;;;;;;;;;;;;;;1031060;28;3901;-53
2022/05/27 01:48:35;;;;;;;;;;;;;;;;;;1033911;28;2377;-55
2022/05/27 01:49:42;;;;;;;;;;;;;;;;;;1032676;28;4044;-55
2022/05/27 01:50:16;;;;;;;;;;;;;;;;;;1027626;28;4049;-56
2022/05/27 01:51:04;;;;;;;;;;;;;;;;;;1029154;28;4303;-56
2022/05/27 01:51:40;;;;;;;;;;;;;;;;;;1029352;28;2217;-54
2022/05/27 01:52:13;;;;;;;;;;;;;;;;;;1028813;28;4027;-56
2022/05/27 01:52:51;;;;;;;;;;;;;;;;;;1029867;28;3897;-54
2022/05/27 01:53:28;;;;;;;;;;;;;;;;;;1045029;28;3814;-56
2022/05/27 01:54:06;;;;;;;;;;;;;;;;;;1045287;28;3979;-55
2022/05/27 01:54:52;;;;;;;;;;;;;;;;;;1045967;28;3612;-54
2022/05/27 01:55:28;;;;;;;;;;;;;;;;;;1046688;28;3955;-57
2022/05/27 01:56:21;;;;;;;;;;;;;;;;;;1044810;28;3904;-54
2022/05/27 01:57:03;;;;;;;;;;;;;;;;;;1045735;28;4062;-55
2022/05/27 01:57:37;;;;;;;;;;;;;;;;;;1040646;28;3068;-55
2022/05/27 01:58:10;;;;;;;;;;;;;;;;;;1040624;28;3896;-57
2022/05/27 01:58:46;;;;;;;;;;;;;;;;;;1041629;28;1952;-55
2022/05/27 01:59:23;;;;;;;;;;;;;;;;;;1043895;28;4012;-54
2022/05/27 02:00:00;;;;;;;;;;;;;;;;;;1045166;28;4070;-53
2022/05/27 02:00:31;;;;;;;;;;;;;;;;;;1047048;28;1368;-56
2022/05/27 02:01:02;;;;;;;;;;;;;;;;;;1045713;28;4057;-56
2022/05/27 02:01:35;;;;;;;;;;;;;;;;;;1046782;28;1933;-58
2022/05/27 02:02:08;;;;;;;;;;;;;;;;;;1046031;28;4191;-52
2022/05/27 02:02:40;;;;;;;;;;;;;;;;;;1046948;28;1732;-53
2022/05/27 02:03:13;;;;;;;;;;;;;;;;;;1044965;28;3889;-53
2022/05/27 02:03:52;;;;;;;;;;;;;;;;;;1045377;28;3569;-57
2022/05/27 02:04:28;;;;;;;;;;;;;;;;;;1046132;28;3862;-56
2022/05/27 02:05:10;;;;;;;;;;;;;;;;;;1045339;28;4075;-54
2022/05/27 02:05:48;;;;;;;;;;;;;;;;;;1045909;28;1977;-56
2022/05/27 02:06:30;;;;;;;;;;;;;;;;;;1042128;28;4024;-55
2022/05/27 02:07:04;;;;;;;;;;;;;;;;;;1040506;28;3829;-57
2022/05/27 02:07:37;;;;;;;;;;;;;;;;;;1042508;28;1609;-56
2022/05/27 02:08:12;;;;;;;;;;;;;;;;;;1040787;28;4037;-55
2022/05/27 02:08:46;;;;;;;;;;;;;;;;;;1046077;28;2438;-55
2022/05/27 02:09:26;;;;;;;;;;;;;;;;;;1044451;28;3770;-54
2022/05/27 02:09:59;;;;;;;;;;;;;;;;;;1045159;28;4118;-56
2022/05/27 02:10:33;;;;;;;;;;;;;;;;;;1044775;28;2611;-53
2022/05/27 02:11:06;;;;;;;;;;;;;;;;;;1046005;28;3807;-57
2022/05/27 02:11:38;;;;;;;;;;;;;;;;;;1046356;28;1811;-56
2022/05/27 02:12:17;;;;;;;;;;;;;;;;;;1037083;28;3890;-57
2022/05/27 02:12:49;;;;;;;;;;;;;;;;;;1036411;28;3965;-54
2022/05/27 02:13:26;;;;;;;;;;;;;;;;;;1038235;28;3065;-56
2022/05/27 02:14:02;;;;;;;;;;;;;;;;;;1041015;28;4111;-55
2022/05/27 02:14:35;;;;;;;;;;;;;;;;;;1046346;28;2415;-58
2022/05/27 02:15:08;;;;;;;;;;;;;;;;;;1044734;28;3816;-54
2022/05/27 02:15:40;;;;;;;;;;;;;;;;;;1041327;28;3733;-58
2022/05/27 02:16:12;;;;;;;;;;;;;;;;;;1039889;28;3906;-54
2022/05/27 02:16:48;;;;;;;;;;;;;;;;;;1041288;28;3798;-54
2022/05/27 02:17:20;;;;;;;;;;;;;;;;;;1038509;28;3948;-54
2022/05/27 02:17:54;;;;;;;;;;;;;;;;;;1040084;28;4062;-56
2022/05/27 02:18:31;;;;;;;;;;;;;;;;;;1041223;28;2766;-53
2022/05/27 02:19:04;;;;;;;;;;;;;;;;;;1043101;28;3960;-56
2022/05/27 02:19:37;;;;;;;;;;;;;;;;;;1046249;28;1995;-54
2022/05/27 02:20:11;;;;;;;;;;;;;;;;;;1045843;28;4192;-58
2022/05/27 02:20:42;;;;;;;;;;;;;;;;;;1041187;28;2850;-57
2022/05/27 02:21:31;;;;;;;;;;;;;;;;;;1041643;28;4006;-54
2022/05/27 02:22:24;;;;;;;;;;;;;;;;;;1040691;28;3937;-55
2022/05/27 02:22:58;;;;;;;;;;;;;;;;;;1042404;28;4088;-55
2022/05/27 02:23:34;;;;;;;;;;;;;;;;;;1045151;28;3796;-56
2022/05/27 02:24:08;;;;;;;;;;;;;;;;;;1044676;28;4089;-54
2022/05/27 02:24:43;;;;;;;;;;;;;;;;;;1046354;28;1971;-55
2022/05/27 02:25:17;;;;;;;;;;;;;;;;;;1044666;28;4154;-57
2022/05/27 02:25:48;;;;;;;;;;;;;;;;;;1043899;28;4011;-55
2022/05/27 02:26:21;;;;;;;;;;;;;;;;;;1045427;28;3260;-55
2022/05/27 02:26:54;;;;;;;;;;;;;;;;;;1041004;28;3921;-56
2022/05/27 02:27:31;;;;;;;;;;;;;;;;;;1042696;28;3243;-53
2022/05/27 02:28:06;;;;;;;;;;;;;;;;;;1041342;28;5115;-54
2022/05/27 02:28:38;;;;;;;;;;;;;;;;;;1044525;28;3352;-55
2022/05/27 02:29:11;;;;;;;;;;;;;;;;;;1044368;28;4020;-56
2022/05/27 02:29:46;;;;;;;;;;;;;;;;;;1045992;28;1658;-50
2022/05/27 02:30:17;;;;;;;;;;;;;;;;;;1044284;28;3763;-55
2022/05/27 02:30:50;;;;;;;;;;;;;;;;;;1041796;28;3882;-57
2022/05/27 02:31:22;;;;;;;;;;;;;;;;;;1042250;28;1630;-56
2022/05/27 02:31:55;;;;;;;;;;;;;;;;;;1041381;28;3974;-56
2022/05/27 02:32:28;;;;;;;;;;;;;;;;;;1042565;28;2757;-55
2022/05/27 02:35:09;;;;;;;;;;;;;;;;;;1044569;28;3912;-55
2022/05/27 02:35:41;;;;;;;;;;;;;;;;;;1045787;28;3404;-51
2022/05/27 02:36:13;;;;;;;;;;;;;;;;;;1044476;28;4039;-55
2022/05/27 02:36:54;;;;;;;;;;;;;;;;;;1047217;28;1604;-57
2022/05/27 02:37:27;;;;;;;;;;;;;;;;;;1045915;28;3734;-56
2022/05/27 02:37:58;;;;;;;;;;;;;;;;;;1045138;28;6343;-55
2022/05/27 02:38:29;;;;;;;;;;;;;;;;;;1045735;28;3328;-56
2022/05/27 02:38:59;;;;;;;;;;;;;;;;;;1040464;28;4231;-58
2022/05/27 02:39:30;;;;;;;;;;;;;;;;;;1040384;28;3131;-55
2022/05/27 02:40:03;;;;;;;;;;;;;;;;;;1041880;28;3907;-57
2022/05/27 02:40:36;;;;;;;;;;;;;;;;;;1041343;28;1905;-54
2022/05/27 02:41:09;;;;;;;;;;;;;;;;;;1043679;28;4248;-56
2022/05/27 02:41:42;;;;;;;;;;;;;;;;;;1046232;28;1797;-52
2022/05/27 02:42:18;;;;;;;;;;;;;;;;;;1045012;28;4020;-53
2022/05/27 02:43:09;;;;;;;;;;;;;;;;;;1045250;28;4072;-56
2022/05/27 02:44:05;;;;;;;;;;;;;;;;;;1045180;28;3310;-58
2022/05/27 02:44:42;;;;;;;;;;;;;;;;;;1046212;28;3864;-54
2022/05/27 02:45:19;;;;;;;;;;;;;;;;;;1041188;28;4606;-54
2022/05/27 02:45:56;;;;;;;;;;;;;;;;;;1040074;28;3833;-57
2022/05/27 02:46:32;;;;;;;;;;;;;;;;;;1041393;28;3964;-58
2022/05/27 02:47:05;;;;;;;;;;;;;;;;;;1042419;28;3893;-58
2022/05/27 02:47:48;;;;;;;;;;;;;;;;;;1045699;28;3376;-56
2022/05/27 02:48:37;;;;;;;;;;;;;;;;;;1044749;28;3826;-55
2022/05/27 02:49:13;;;;;;;;;;;;;;;;;;1046021;28;4008;-56
2022/05/27 02:49:43;;;;;;;;;;;;;;;;;;1046253;28;1770;-53
2022/05/27 02:50:28;;;;;;;;;;;;;;;;;;1044949;28;3997;-54
2022/05/27 02:51:04;;;;;;;;;;;;;;;;;;1045451;28;4126;-55
2022/05/27 02:51:47;;;;;;;;;;;;;;;;;;1039642;28;3037;-55
2022/05/27 02:52:31;;;;;;;;;;;;;;;;;;1040551;28;3588;-57
2022/05/27 02:53:19;;;;;;;;;;;;;;;;;;1041461;28;3894;-56
2022/05/27 02:54:08;;;;;;;;;;;;;;;;;;1044740;28;5220;-52
2022/05/27 02:54:57;;;;;;;;;;;;;;;;;;1046476;28;2697;-55
2022/05/27 02:55:46;;;;;;;;;;;;;;;;;;1045639;28;3883;-56
2022/05/27 02:56:50;;;;;;;;;;;;;;;;;;1039131;28;3853;-54
2022/05/27 02:57:30;;;;;;;;;;;;;;;;;;1040383;28;4138;-55
2022/05/27 02:58:02;;;;;;;;;;;;;;;;;;1039536;28;4045;-54
2022/05/27 02:58:32;;;;;;;;;;;;;;;;;;1037291;28;2925;-56
2022/05/27 02:59:03;;;;;;;;;;;;;;;;;;1037849;28;3994;-56
2022/05/27 02:59:35;;;;;;;;;;;;;;;;;;1038181;28;1712;-56
2022/05/27 03:00:06;;;;;;;;;;;;;;;;;;1037809;28;5174;-57
2022/05/27 03:00:38;;;;;;;;;;;;;;;;;;1037527;28;3142;-55
2022/05/27 03:01:09;;;;;;;;;;;;;;;;;;1037720;28;4043;-55
2022/05/27 03:01:39;;;;;;;;;;;;;;;;;;1038569;28;1996;-58
2022/05/27 03:02:15;;;;;;;;;;;;;;;;;;1036690;28;3837;-56
2022/05/27 03:02:46;;;;;;;;;;;;;;;;;;1037591;28;3871;-52
2022/05/27 03:03:17;;;;;;;;;;;;;;;;;;1037448;28;3056;-57
2022/05/27 03:03:47;;;;;;;;;;;;;;;;;;1037870;28;3786;-57
2022/05/27 03:04:18;;;;;;;;;;;;;;;;;;1037157;28;3066;-55
2022/05/27 03:04:50;;;;;;;;;;;;;;;;;;1036495;28;4063;-57
2022/05/27 03:05:23;;;;;;;;;;;;;;;;;;1038545;28;1216;-55
2022/05/27 03:05:53;;;;;;;;;;;;;;;;;;1036102;28;4358;-57
2022/05/27 03:06:29;;;;;;;;;;;;;;;;;;1038733;28;1846;-54
2022/05/27 03:07:16;;;;;;;;;;;;;;;;;;1036830;28;4816;-58
2022/05/27 03:07:56;;;;;;;;;;;;;;;;;;1037792;28;4490;-57
2022/05/27 03:08:45;;;;;;;;;;;;;;;;;;1038140;28;3420;-56
2022/05/27 03:09:22;;;;;;;;;;;;;;;;;;1036515;28;3819;-58
2022/05/27 03:09:54;;;;;;;;;;;;;;;;;;1037769;28;4053;-57
2022/05/27 03:10:27;;;;;;;;;;;;;;;;;;1036956;28;2948;-56
2022/05/27 03:11:22;;;;;;;;;;;;;;;;;;1037117;28;3818;-56
2022/05/27 03:12:13;;;;;;;;;;;;;;;;;;1037239;28;4116;-55
2022/05/27 03:13:02;;;;;;;;;;;;;;;;;;1037086;28;2368;-57
2022/05/27 03:13:51;;;;;;;;;;;;;;;;;;1037982;28;4148;-58
2022/05/27 03:14:21;;;;;;;;;;;;;;;;;;1038080;28;3734;-55
2022/05/27 03:15:10;;;;;;;;;;;;;;;;;;1036518;28;4056;-57
2022/05/27 03:15:50;;;;;;;;;;;;;;;;;;1037939;28;3221;-55
2022/05/27 03:16:28;;;;;;;;;;;;;;;;;;1037438;28;3696;-54
2022/05/27 03:17:18;;;;;;;;;;;;;;;;;;1037217;28;3797;-55
2022/05/27 03:17:55;;;;;;;;;;;;;;;;;;1037913;28;4147;-54
2022/05/27 03:18:32;;;;;;;;;;;;;;;;;;1037806;28;1748;-57
2022/05/27 03:19:12;;;;;;;;;;;;;;;;;;1037643;28;4050;-54
2022/05/27 03:19:57;;;;;;;;;;;;;;;;;;1037410;28;1705;-58
2022/05/27 03:20:30;;;;;;;;;;;;;;;;;;1037762;28;3868;-56
2022/05/27 03:21:01;;;;;;;;;;;;;;;;;;1036467;28;4059;-55
2022/05/27 03:21:50;;;;;;;;;;;;;;;;;;1038140;28;3522;-55
2022/05/27 03:22:29;;;;;;;;;;;;;;;;;;1038435;28;3750;-56
2022/05/27 03:23:31;;;;;;;;;;;;;;;;;;1037851;28;3957;-55
2022/05/27 03:24:16;;;;;;;;;;;;;;;;;;1028093;28;5036;-56
2022/05/27 03:24:49;;;;;;;;;;;;;;;;;;1027821;28;4103;-56
2022/05/27 03:25:27;;;;;;;;;;;;;;;;;;1036414;28;2438;-56
2022/05/27 03:26:00;;;;;;;;;;;;;;;;;;1036060;28;4080;-54
2022/05/27 03:26:43;;;;;;;;;;;;;;;;;;1038363;28;3944;-56
2022/05/27 03:27:16;;;;;;;;;;;;;;;;;;1037603;28;3878;-55
2022/05/27 03:28:01;;;;;;;;;;;;;;;;;;1036750;28;4107;-55
2022/05/27 03:28:43;;;;;;;;;;;;;;;;;;1038377;28;1370;-55
2022/05/27 03:29:24;;;;;;;;;;;;;;;;;;1036361;28;3890;-55
2022/05/27 03:30:00;;;;;;;;;;;;;;;;;;1037956;28;3794;-53
2022/05/27 03:30:32;;;;;;;;;;;;;;;;;;1038295;28;2042;-57
2022/05/27 03:31:18;;;;;;;;;;;;;;;;;;1037973;28;4130;-55
2022/05/27 03:31:55;;;;;;;;;;;;;;;;;;1037391;28;3901;-54
2022/05/27 03:32:28;;;;;;;;;;;;;;;;;;1038342;28;1562;-52
2022/05/27 03:33:09;;;;;;;;;;;;;;;;;;1038039;28;4104;-57
2022/05/27 03:33:49;;;;;;;;;;;;;;;;;;1036595;28;3431;-55
2022/05/27 03:34:31;;;;;;;;;;;;;;;;;;1037354;28;3856;-54
2022/05/27 03:35:07;;;;;;;;;;;;;;;;;;1036628;28;3892;-56
2022/05/27 03:35:47;;;;;;;;;;;;;;;;;;1038652;28;1391;-56
2022/05/27 03:36:18;;;;;;;;;;;;;;;;;;1036874;28;3724;-57
2022/05/27 03:37:02;;;;;;;;;;;;;;;;;;1037417;28;3904;-54
2022/05/27 03:37:49;;;;;;;;;;;;;;;;;;1037816;28;2365;-55
2022/05/27 03:38:25;;;;;;;;;;;;;;;;;;1037761;28;4702;-55
2022/05/27 03:39:01;;;;;;;;;;;;;;;;;;1041884;28;3820;-54
2022/05/27 03:39:50;;;;;;;;;;;;;;;;;;1041137;28;3667;-57
2022/05/27 03:40:24;;;;;;;;;;;;;;;;;;1041607;28;3765;-54
2022/05/27 03:41:06;;;;;;;;;;;;;;;;;;1037141;28;4050;-54
2022/05/27 03:41:38;;;;;;;;;;;;;;;;;;1038045;28;1232;-55
2022/05/27 03:42:09;;;;;;;;;;;;;;;;;;1036175;28;4145;-55
2022/05/27 03:42:40;;;;;;;;;;;;;;;;;;1038087;28;4022;-56
2022/05/27 03:43:11;;;;;;;;;;;;;;;;;;1037309;28;3960;-57
2022/05/27 03:43:43;;;;;;;;;;;;;;;;;;1038755;28;1480;-56
2022/05/27 03:44:15;;;;;;;;;;;;;;;;;;1035934;28;3797;-57
2022/05/27 03:44:49;;;;;;;;;;;;;;;;;;1038297;28;2295;-57
2022/05/27 03:45:21;;;;;;;;;;;;;;;;;;1037748;28;3831;-56
2022/05/27 03:45:51;;;;;;;;;;;;;;;;;;1033377;28;3908;-55
2022/05/27 03:46:29;;;;;;;;;;;;;;;;;;1036589;28;3351;-54
2022/05/27 03:46:59;;;;;;;;;;;;;;;;;;1036648;28;3982;-55
2022/05/27 03:47:29;;;;;;;;;;;;;;;;;;1036710;28;3635;-55
2022/05/27 03:47:59;;;;;;;;;;;;;;;;;;1037053;28;3856;-57
2022/05/27 03:48:31;;;;;;;;;;;;;;;;;;1038738;28;1717;-57
2022/05/27 03:49:02;;;;;;;;;;;;;;;;;;1035433;28;3984;-56
2022/05/27 03:49:32;;;;;;;;;;;;;;;;;;1039177;28;1420;-53
2022/05/27 03:50:03;;;;;;;;;;;;;;;;;;1036602;28;3799;-58
2022/05/27 03:50:33;;;;;;;;;;;;;;;;;;1036473;28;3338;-58
2022/05/27 03:51:06;;;;;;;;;;;;;;;;;;1033136;28;3969;-56
2022/05/27 03:52:06;;;;;;;;;;;;;;;;;;1038075;28;1861;-54
2022/05/27 03:52:38;;;;;;;;;;;;;;;;;;1035910;28;3946;-56
2022/05/27 03:53:08;;;;;;;;;;;;;;;;;;1037788;28;4330;-56
2022/05/27 03:54:28;;;;;;;;;;;;;;;;;;1036416;28;3950;-57
2022/05/27 03:54:58;;;;;;;;;;;;;;;;;;1035622;28;4092;-56
2022/05/27 03:55:28;;;;;;;;;;;;;;;;;;1037442;28;3870;-55
2022/05/27 03:55:59;;;;;;;;;;;;;;;;;;1036876;28;4061;-55
2022/05/27 03:56:43;;;;;;;;;;;;;;;;;;1043897;28;2359;-54
2022/05/27 03:57:21;;;;;;;;;;;;;;;;;;1045186;28;3661;-52
2022/05/27 03:57:51;;;;;;;;;;;;;;;;;;1045599;28;3824;-54
2022/05/27 03:58:21;;;;;;;;;;;;;;;;;;1044755;28;3276;-53
2022/05/27 03:58:51;;;;;;;;;;;;;;;;;;1045555;28;4054;-54
2022/05/27 03:59:22;;;;;;;;;;;;;;;;;;1040566;28;3379;-56
2022/05/27 03:59:52;;;;;;;;;;;;;;;;;;1040534;28;3988;-58
2022/05/27 04:00:22;;;;;;;;;;;;;;;;;;1041727;28;2410;-56
2022/05/27 04:00:53;;;;;;;;;;;;;;;;;;1040165;28;3824;-58
2022/05/27 04:01:25;;;;;;;;;;;;;;;;;;1045929;28;2764;-55
2022/05/27 04:01:55;;;;;;;;;;;;;;;;;;1039851;28;4042;-56
2022/05/27 04:02:26;;;;;;;;;;;;;;;;;;1041810;28;2247;-55
2022/05/27 04:02:56;;;;;;;;;;;;;;;;;;1036356;28;4020;-54
2022/05/27 04:03:26;;;;;;;;;;;;;;;;;;1037838;28;3678;-53
2022/05/27 04:03:57;;;;;;;;;;;;;;;;;;1041079;28;3824;-55
2022/05/27 04:04:28;;;;;;;;;;;;;;;;;;1041371;28;1596;-56
2022/05/27 04:04:59;;;;;;;;;;;;;;;;;;1041415;28;4861;-55
2022/05/27 04:05:29;;;;;;;;;;;;;;;;;;1041083;28;1599;-55
2022/05/27 04:05:59;;;;;;;;;;;;;;;;;;1045032;28;4233;-54
2022/05/27 04:06:30;;;;;;;;;;;;;;;;;;1046092;28;3701;-57
2022/05/27 04:07:00;;;;;;;;;;;;;;;;;;1044773;28;4061;-54
2022/05/27 04:07:30;;;;;;;;;;;;;;;;;;1045442;28;3685;-55
2022/05/27 04:08:00;;;;;;;;;;;;;;;;;;1045525;28;4222;-55
2022/05/27 04:08:31;;;;;;;;;;;;;;;;;;1046208;28;1604;-54
2022/05/27 04:09:01;;;;;;;;;;;;;;;;;;1043406;28;3949;-54
2022/05/27 04:09:33;;;;;;;;;;;;;;;;;;1045189;28;3277;-55
2022/05/27 04:10:04;;;;;;;;;;;;;;;;;;1043994;28;4030;-58
2022/05/27 04:10:34;;;;;;;;;;;;;;;;;;1046255;28;2377;-55
2022/05/27 04:11:04;;;;;;;;;;;;;;;;;;1043250;28;3890;-55